KVAD/VAD METAR and TAF weather

Enter ICAO airport designator
Station Type Date Time Source
KVAD METAR 2021/05/15 01:56 UTC NOAA

KVAD 150156Z AUTO 09004KT 10SM CLR 18/09 A3019 RMK AO2 SLP225 T01800088 $


Station Type Date Time Source
KVAD Decoded METAR 2021/05/15 01:56 UTC NOAA

Moody Air Force Base, GA, United States (KVAD) 30-58N 083-12W 71M
May 14, 2021 - 09:56 PM EDT / 2021.05.15 0156 UTC
Wind: from the E (090 degrees) at 5 MPH (4 KT):0
Visibility: 10 mile(s):0
Sky conditions: clear
Temperature: 64.4 F (18.0 C)
Dew Point: 47.8 F (8.8 C)
Relative Humidity: 54%
Pressure (altimeter): 30.19 in. Hg (1022 hPa)
ob: KVAD 150156Z AUTO 09004KT 10SM CLR 18/09 A3019 RMK AO2 SLP225 T01800088
cycle: 2

Station Type Date Time Source
KVAD TAF 2021/05/14 05:09 UTC NOAA

TAF
AMD KVAD 140500Z 1405/1506 03006KT 9999 SKC QNH3014INS
BECMG 1413/1414 04010G15KT 9999 SKC QNH3016INS
BECMG 1421/1422 05008KT 9999 SKC QNH3014INS TX25/1420Z TN12/1408Z LAST NO
AMDS AFT 1405 NEXT 1704

Example: see airport list